Time;durP1;ratioP1;P1;durP2;ratioP2;P2;SDS_P1;SDS_P2;PMS_P1;PMS_P2;Temp;Humidity;BMP_temperature;BMP_pressure;BME280_temperature;BME280_humidity;BME280_pressure;Samples;Min_cycle;Max_cycle;Signal;HPM_P1;HPM_P2
2021/07/16 00:02:12;;;;;;;5.30;2.47;;;;;;;23.61;100.00;100010.16;1811404;78;21894;-61
2021/07/16 00:04:39;;;;;;;7.40;2.87;;;;;;;23.58;100.00;100009.36;1789820;78;22444;-62
2021/07/16 00:07:05;;;;;;;6.80;2.30;;;;;;;23.58;100.00;100009.91;1790387;78;20906;-62
2021/07/16 00:09:32;;;;;;;6.10;2.33;;;;;;;23.65;100.00;99998.42;1740554;79;20951;-62
2021/07/16 00:11:58;;;;;;;8.93;3.00;;;;;;;23.56;100.00;99999.52;1789218;79;21525;-59
2021/07/16 00:14:25;;;;;;;7.37;3.20;;;;;;;23.50;100.00;99997.44;1785004;78;21474;-61
2021/07/16 00:16:54;;;;;;;8.00;3.43;;;;;;;23.54;100.00;99995.81;1797228;78;21536;-62
2021/07/16 00:19:22;;;;;;;11.00;2.97;;;;;;;23.40;100.00;99992.70;1780526;78;21521;-61
2021/07/16 00:21:49;;;;;;;6.97;3.10;;;;;;;23.32;100.00;99994.07;1801755;78;20983;-61
2021/07/16 00:24:15;;;;;;;11.70;3.70;;;;;;;23.24;100.00;99988.00;1789257;78;21450;-64
2021/07/16 00:26:42;;;;;;;5.67;3.30;;;;;;;23.14;100.00;99988.03;1786824;79;21259;-64
2021/07/16 00:29:10;;;;;;;6.90;3.50;;;;;;;23.10;100.00;99980.34;1780647;79;20987;-64
2021/07/16 00:31:37;;;;;;;8.63;3.70;;;;;;;23.09;100.00;99982.75;1782487;78;20955;-59
2021/07/16 00:34:04;;;;;;;7.30;2.83;;;;;;;23.03;100.00;99980.13;1785191;78;21105;-63
2021/07/16 00:36:31;;;;;;;6.47;2.77;;;;;;;22.97;100.00;99981.20;1790597;79;21093;-62
2021/07/16 00:38:57;;;;;;;6.60;3.40;;;;;;;22.85;100.00;99983.34;1789963;78;21147;-62
2021/07/16 00:41:24;;;;;;;10.80;3.23;;;;;;;22.57;100.00;99991.37;1785786;79;20940;-62
2021/07/16 00:43:50;;;;;;;6.47;2.80;;;;;;;22.66;100.00;99994.30;1776655;79;20932;-62
2021/07/16 00:46:17;;;;;;;6.43;3.90;;;;;;;22.54;100.00;99994.05;1785978;78;21075;-62
2021/07/16 00:48:45;;;;;;;10.40;3.70;;;;;;;22.55;100.00;99995.63;1793736;79;21086;-64
2021/07/16 00:51:12;;;;;;;6.37;3.23;;;;;;;22.55;100.00;99995.63;1788732;78;21125;-63
2021/07/16 00:53:38;;;;;;;11.27;3.70;;;;;;;22.31;100.00;99990.61;1775557;79;20933;-59
2021/07/16 00:56:06;;;;;;;11.93;4.97;;;;;;;22.27;100.00;99989.55;1789042;79;21057;-64
2021/07/16 00:58:33;;;;;;;9.47;3.50;;;;;;;22.23;100.00;99987.16;1786948;78;21072;-63
2021/07/16 01:00:59;;;;;;;9.47;3.37;;;;;;;22.20;100.00;99987.19;1791394;78;21003;-63
2021/07/16 01:03:26;;;;;;;10.30;4.10;;;;;;;22.15;100.00;99983.72;1790779;78;21128;-62
2021/07/16 01:05:52;;;;;;;7.93;3.30;;;;;;;22.11;100.00;99980.23;1808557;79;20979;-59
2021/07/16 01:08:19;;;;;;;10.83;3.33;;;;;;;22.18;100.00;99982.66;1801498;79;21038;-60
2021/07/16 01:10:47;;;;;;;11.17;4.07;;;;;;;22.25;100.00;99978.41;1794251;79;20991;-63
2021/07/16 01:13:14;;;;;;;8.77;3.40;;;;;;;22.22;100.00;99972.30;1809819;78;20983;-63
2021/07/16 01:15:41;;;;;;;10.73;3.47;;;;;;;22.08;100.00;99975.45;1805845;78;21150;-59
2021/07/16 01:18:08;;;;;;;14.87;3.47;;;;;;;22.06;100.00;99976.27;1809151;79;20982;-64
2021/07/16 01:20:35;;;;;;;11.23;3.80;;;;;;;22.00;100.00;99978.64;1811023;79;21041;-65
2021/07/16 01:23:01;;;;;;;12.00;4.40;;;;;;;22.02;100.00;99984.49;1806361;79;21028;-63
2021/07/16 01:25:30;;;;;;;12.40;3.67;;;;;;;21.90;100.00;99985.29;1800278;79;20860;-65
2021/07/16 01:27:59;;;;;;;9.03;3.53;;;;;;;21.82;100.00;99981.81;1799429;79;21206;-64
2021/07/16 01:30:29;;;;;;;12.53;3.67;;;;;;;21.81;100.00;99981.02;1811552;79;20975;-63
2021/07/16 01:32:55;;;;;;;10.23;3.17;;;;;;;22.06;100.00;99972.28;1741625;82;21553;-64
2021/07/16 01:35:24;;;;;;;8.93;3.90;;;;;;;21.84;100.00;99981.82;1751780;80;20897;-63
2021/07/16 01:37:50;;;;;;;16.17;4.13;;;;;;;21.80;100.00;99986.59;1770674;80;20892;-61
2021/07/16 01:40:20;;;;;;;11.30;3.97;;;;;;;21.76;100.00;99981.55;1783260;80;21145;-62
2021/07/16 01:42:55;;;;;;;11.87;4.60;;;;;;;21.76;100.00;99990.84;1784867;80;20991;-63
2021/07/16 01:45:29;;;;;;;10.07;3.47;;;;;;;21.58;100.00;99990.27;1768706;80;20984;-60
2021/07/16 01:48:02;;;;;;;11.73;3.83;;;;;;;21.46;100.00;99992.36;1779365;80;21119;-62
2021/07/16 01:50:30;;;;;;;16.90;4.60;;;;;;;21.47;100.00;99991.30;1744243;81;21053;-62
2021/07/16 01:52:56;;;;;;;19.37;4.43;;;;;;;21.68;100.00;99988.71;1765912;80;22207;-63
2021/07/16 01:55:24;;;;;;;15.83;4.27;;;;;;;21.69;100.00;99992.41;1768209;80;20934;-62
2021/07/16 01:57:53;;;;;;;17.23;3.47;;;;;;;21.70;100.00;99991.88;1767229;80;20994;-62
2021/07/16 02:00:30;;;;;;;11.93;4.10;;;;;;;21.69;100.00;99991.09;1777127;80;21610;-63
2021/07/16 02:02:59;;;;;;;16.63;4.20;;;;;;;21.83;100.00;99994.03;1766298;80;20983;-59
2021/07/16 02:05:26;;;;;;;15.27;3.67;;;;;;;21.86;100.00;99992.98;1769401;80;22105;-64
2021/07/16 02:08:02;;;;;;;12.57;3.60;;;;;;;21.98;100.00;99991.39;1778081;79;20990;-59
2021/07/16 02:10:31;;;;;;;8.70;3.50;;;;;;;21.86;100.00;99992.19;1769147;80;20945;-62
2021/07/16 02:12:58;;;;;;;7.67;4.00;;;;;;;22.06;100.00;99994.84;1777899;79;21530;-59
2021/07/16 02:15:31;;;;;;;9.07;3.53;;;;;;;22.20;100.00;99990.34;1770622;80;21555;-64
2021/07/16 02:18:00;;;;;;;14.73;3.83;;;;;;;22.37;100.00;99988.75;1781366;79;22110;-61
2021/07/16 02:20:31;;;;;;;13.87;3.93;;;;;;;22.70;100.00;99991.36;1776902;79;21537;-62
2021/07/16 02:23:03;;;;;;;7.67;3.10;;;;;;;22.78;100.00;99985.48;1782345;79;20925;-61
2021/07/16 02:25:29;;;;;;;10.90;3.37;;;;;;;22.97;100.00;99987.84;1766424;80;21012;-59
2021/07/16 02:28:00;;;;;;;7.03;3.07;;;;;;;23.27;100.00;99993.57;1774101;80;20941;-61
2021/07/16 02:30:27;;;;;;;9.73;3.70;;;;;;;23.57;100.00;99997.67;1778753;79;21888;-62
2021/07/16 02:32:56;;;;;;;10.27;3.37;;;;;;;23.82;100.00;99988.75;1770636;80;20900;-59
2021/07/16 02:35:23;;;;;;;8.53;4.37;;;;;;;24.05;100.00;99996.02;1777559;80;21337;-59
2021/07/16 02:37:50;;;;;;;7.57;2.93;;;;;;;24.36;100.00;99994.42;1780328;79;22085;-61
2021/07/16 02:40:17;;;;;;;8.10;2.60;;;;;;;24.67;100.00;99998.42;1786022;79;21524;-62
2021/07/16 02:42:44;;;;;;;11.53;3.40;;;;;;;25.01;100.00;99993.52;1770351;80;21067;-61
2021/07/16 02:45:15;;;;;;;16.60;3.47;;;;;;;25.28;100.00;99992.14;1774435;80;21104;-62
2021/07/16 02:47:42;;;;;;;11.33;3.17;;;;;;;25.58;100.00;99997.60;1781889;79;20954;-60
2021/07/16 02:50:14;;;;;;;8.10;2.83;;;;;;;25.96;100.00;99990.38;1775486;79;21409;-62
2021/07/16 02:52:41;;;;;;;6.33;2.87;;;;;;;26.34;100.00;99991.06;1791165;79;21463;-60
2021/07/16 02:55:10;;;;;;;8.60;3.30;;;;;;;26.65;100.00;99993.20;1786201;80;21126;-62
2021/07/16 02:57:36;;;;;;;6.13;3.30;;;;;;;26.89;100.00;99993.00;1746320;80;20905;-62
2021/07/16 03:00:24;;;;;;;8.87;3.20;;;;;;;27.15;100.00;99998.66;1775999;80;21000;-61
2021/07/16 03:02:51;;;;;;;7.40;3.10;;;;;;;27.32;100.00;100002.06;1769112;80;20995;-62
2021/07/16 03:05:21;;;;;;;6.70;3.47;;;;;;;27.61;100.00;100009.15;1767039;80;21145;-60
2021/07/16 03:07:48;;;;;;;7.35;3.67;;;;;;;28.15;100.00;100011.95;1778409;79;21209;-61
2021/07/16 03:10:25;;;;;;;10.33;3.37;;;;;;;28.70;100.00;99992.04;1772768;80;21043;-62
2021/07/16 03:12:55;;;;;;;8.53;3.73;;;;;;;29.29;95.59;99991.19;1780137;80;21032;-62
2021/07/16 03:15:24;;;;;;;10.40;4.22;;;;;;;29.65;89.39;99989.55;1776067;79;20925;-60
2021/07/16 03:17:52;;;;;;;13.95;3.85;;;;;;;30.08;83.97;99996.78;1771002;80;44238;-61
2021/07/16 03:20:23;;;;;;;7.80;3.47;;;;;;;30.20;83.57;99996.93;1768222;80;21794;-60
2021/07/16 03:22:51;;;;;;;6.12;3.67;;;;;;;30.84;78.14;99988.53;1775292;80;21085;-64
2021/07/16 03:25:19;;;;;;;7.35;3.25;;;;;;;31.24;70.93;99996.44;1773233;80;21031;-60
2021/07/16 03:27:46;;;;;;;10.00;3.37;;;;;;;31.67;66.69;99998.58;1783261;80;21126;-64
2021/07/16 03:30:21;;;;;;;9.25;3.75;;;;;;;32.20;61.60;99985.64;1774272;79;20970;-61
2021/07/16 03:32:48;;;;;;;9.00;4.50;;;;;;;32.69;57.39;99975.45;1774869;80;21162;-65
2021/07/16 03:35:15;;;;;;;7.92;3.77;;;;;;;33.08;53.97;99980.73;1778142;80;20877;-60
2021/07/16 03:37:43;;;;;;;7.65;3.72;;;;;;;33.38;52.28;99984.48;1765606;80;22026;-64
2021/07/16 03:40:12;;;;;;;8.63;3.87;;;;;;;33.73;50.13;99988.75;1765383;80;21107;-61
2021/07/16 03:42:39;;;;;;;5.72;3.67;;;;;;;34.03;48.24;99987.83;1774755;80;21004;-65
2021/07/16 03:45:07;;;;;;;10.98;4.15;;;;;;;34.36;47.03;99985.34;1778587;80;21186;-61
2021/07/16 03:47:33;;;;;;;11.40;4.30;;;;;;;34.51;46.05;99988.66;1767835;79;21091;-66
2021/07/16 03:50:01;;;;;;;7.62;3.50;;;;;;;34.91;44.85;99981.42;1770502;80;21535;-60
2021/07/16 03:52:29;;;;;;;7.15;3.33;;;;;;;35.33;43.41;99985.63;1771153;80;20893;-66
2021/07/16 03:54:55;;;;;;;6.72;3.50;;;;;;;35.55;42.61;99988.22;1769229;80;21065;-61
2021/07/16 03:57:22;;;;;;;6.30;4.10;;;;;;;36.06;41.14;99980.64;1771876;80;21099;-66
2021/07/16 03:59:49;;;;;;;8.15;4.37;;;;;;;36.54;39.65;99975.63;1785167;80;20977;-63
2021/07/16 04:02:15;;;;;;;9.78;4.67;;;;;;;36.84;38.96;99980.32;1774494;79;21483;-61
2021/07/16 04:04:42;;;;;;;8.05;4.03;;;;;;;37.24;38.47;99978.91;1780886;79;20996;-65
2021/07/16 04:07:17;;;;;;;7.90;4.50;;;;;;;37.76;37.19;99972.32;1767499;79;20956;-60
2021/07/16 04:09:40;;;;;;;8.35;4.58;;;;;;;38.01;36.33;99982.11;1780232;79;21558;-63
2021/07/16 04:12:16;;;;;;;13.10;4.10;;;;;;;38.44;35.56;99986.75;1787436;79;21483;-66
2021/07/16 04:14:46;;;;;;;9.63;3.60;;;;;;;38.82;35.42;99986.63;1781722;79;21296;-68
2021/07/16 04:17:19;;;;;;;13.85;3.80;;;;;;;39.11;34.76;99987.56;1774373;79;21028;-65
2021/07/16 04:19:45;;;;;;;9.40;3.87;;;;;;;39.39;34.24;99982.22;1782898;79;21075;-70
2021/07/16 04:22:12;;;;;;;9.63;3.92;;;;;;;39.54;33.97;99980.91;1791492;79;21130;-64
2021/07/16 04:24:40;;;;;;;8.08;3.52;;;;;;;39.36;34.14;99972.11;1774169;79;21055;-73
2021/07/16 04:27:07;;;;;;;9.85;3.40;;;;;;;39.45;34.30;99975.83;1778435;79;20924;-62
2021/07/16 04:29:34;;;;;;;8.38;3.70;;;;;;;39.63;34.17;99965.73;1781251;78;20986;-71
2021/07/16 04:32:01;;;;;;;10.82;3.67;;;;;;;39.82;33.69;99970.66;1786967;78;20963;-68
2021/07/16 04:34:32;;;;;;;9.03;3.52;;;;;;;40.13;33.44;99972.64;1798553;78;21101;-62
2021/07/16 04:36:59;;;;;;;14.70;3.95;;;;;;;40.44;32.73;99974.96;1784782;78;21094;-70
2021/07/16 04:39:26;;;;;;;7.08;3.10;;;;;;;40.63;32.54;99966.95;1783824;78;20904;-70
2021/07/16 04:41:53;;;;;;;7.20;2.92;;;;;;;41.04;31.50;99968.59;1790037;78;22048;-71
2021/07/16 04:44:19;;;;;;;5.58;2.95;;;;;;;41.05;29.79;99960.58;1794077;78;20956;-71
2021/07/16 04:46:47;;;;;;;5.40;3.02;;;;;;;41.22;29.39;99963.83;1780925;78;21677;-66
2021/07/16 04:49:13;;;;;;;10.15;4.00;;;;;;;41.39;28.16;99960.02;1784272;78;21645;-62
2021/07/16 04:51:40;;;;;;;7.47;3.90;;;;;;;41.87;28.71;99967.58;1783304;79;21098;-70
2021/07/16 04:54:08;;;;;;;13.30;4.62;;;;;;;42.51;26.74;99963.69;1788588;78;21058;-72
2021/07/16 04:56:34;;;;;;;8.88;3.87;;;;;;;42.65;26.98;99968.81;1799954;78;20955;-72
2021/07/16 04:59:02;;;;;;;6.70;3.87;;;;;;;42.91;27.63;99960.52;1809186;78;21131;-71
2021/07/16 05:01:30;;;;;;;9.83;3.95;;;;;;;43.11;25.40;99962.81;1816035;78;21006;-70
2021/07/16 05:03:57;;;;;;;12.63;3.75;;;;;;;43.00;26.50;99967.62;1785916;78;21584;-71
2021/07/16 05:06:24;;;;;;;6.78;3.83;;;;;;;43.15;26.86;99955.34;1790374;78;21070;-62
2021/07/16 05:08:52;;;;;;;9.20;3.50;;;;;;;43.45;25.85;99946.86;1780039;78;21587;-71
2021/07/16 05:11:19;;;;;;;7.28;3.47;;;;;;;43.42;24.39;99950.46;1783169;78;22132;-63
2021/07/16 05:13:47;;;;;;;6.05;4.17;;;;;;;43.36;25.20;99959.73;1788516;78;21311;-72
2021/07/16 05:16:15;;;;;;;8.90;3.77;;;;;;;43.44;23.58;99957.06;1800887;78;21478;-71
2021/07/16 05:18:43;;;;;;;8.55;4.65;;;;;;;43.55;23.49;99955.57;1791456;78;20966;-69
2021/07/16 05:21:11;;;;;;;6.40;3.85;;;;;;;43.74;23.65;99953.33;1801855;78;21083;-70
2021/07/16 05:23:38;;;;;;;10.40;3.75;;;;;;;43.85;23.65;99955.30;1792378;78;22758;-69
2021/07/16 05:26:04;;;;;;;7.15;4.22;;;;;;;44.08;23.68;99951.80;1790435;78;21039;-68
2021/07/16 05:28:31;;;;;;;6.25;3.85;;;;;;;44.50;23.21;99946.74;1790454;78;20962;-62
2021/07/16 05:30:59;;;;;;;7.25;3.92;;;;;;;44.66;22.35;99950.35;1794131;78;21076;-68
2021/07/16 05:33:26;;;;;;;9.25;4.58;;;;;;;44.42;22.88;99948.85;1792874;78;20983;-66
2021/07/16 05:35:55;;;;;;;5.92;4.80;;;;;;;44.46;22.84;99961.16;1777148;78;21151;-69
2021/07/16 05:38:22;;;;;;;10.40;4.55;;;;;;;44.36;22.85;99954.65;1797166;78;20891;-63
2021/07/16 05:40:49;;;;;;;8.60;4.47;;;;;;;44.53;22.93;99950.02;1796911;78;20953;-68
2021/07/16 05:43:15;;;;;;;6.70;3.90;;;;;;;44.40;22.80;99945.16;1792501;79;21085;-66
2021/07/16 05:45:42;;;;;;;6.83;3.98;;;;;;;44.48;22.79;99944.43;1800217;78;20953;-69
2021/07/16 05:48:10;;;;;;;8.70;4.90;;;;;;;44.78;22.38;99955.03;1803024;78;21129;-68
2021/07/16 05:50:42;;;;;;;11.50;4.63;;;;;;;45.06;21.80;99952.33;1795918;78;21019;-61
2021/07/16 05:53:09;;;;;;;7.75;5.70;;;;;;;45.07;21.80;99946.39;1800201;79;21038;-68
2021/07/16 05:55:36;;;;;;;9.80;5.67;;;;;;;45.07;21.80;99946.39;1799242;78;21585;-67
2021/07/16 05:58:04;;;;;;;8.63;4.50;;;;;;;44.76;22.07;99953.33;1793600;79;21070;-69
2021/07/16 06:00:32;;;;;;;7.00;4.35;;;;;;;44.64;22.18;99949.22;1806340;78;22686;-62
2021/07/16 06:02:58;;;;;;;9.93;4.83;;;;;;;45.19;22.14;99942.80;1814954;77;20979;-69
2021/07/16 06:05:25;;;;;;;6.30;4.83;;;;;;;45.46;21.88;99940.62;1804038;77;21426;-71
2021/07/16 06:07:52;;;;;;;11.10;5.08;;;;;;;45.52;21.55;99937.53;1803609;77;20979;-71
2021/07/16 06:10:19;;;;;;;11.40;5.72;;;;;;;45.66;21.90;99933.67;1762034;80;21356;-72
2021/07/16 06:12:45;;;;;;;9.73;5.10;;;;;;;45.81;21.70;99929.95;1779308;78;21118;-67
2021/07/16 06:15:13;;;;;;;11.05;5.80;;;;;;;45.95;20.93;99928.22;1778773;80;21085;-70
2021/07/16 06:17:41;;;;;;;13.03;5.90;;;;;;;46.20;20.94;99926.80;1766965;79;21007;-63
2021/07/16 06:20:11;;;;;;;14.53;6.28;;;;;;;46.38;20.73;99921.61;1769065;79;21615;-66
2021/07/16 06:22:38;;;;;;;13.72;6.28;;;;;;;46.34;20.79;99917.57;1775254;79;21548;-61
2021/07/16 06:25:06;;;;;;;15.70;5.92;;;;;;;46.33;20.94;99916.00;1775226;79;21115;-65
2021/07/16 06:27:33;;;;;;;10.60;5.37;;;;;;;46.37;20.79;99918.66;1782650;78;21043;-65
2021/07/16 06:29:59;;;;;;;14.50;5.75;;;;;;;46.49;20.97;99917.95;1786509;79;21058;-67
2021/07/16 06:32:26;;;;;;;13.38;5.67;;;;;;;46.64;20.51;99911.45;1782919;78;21102;-63
2021/07/16 06:34:52;;;;;;;10.70;5.08;;;;;;;46.81;20.22;99908.75;1789747;79;20884;-66
2021/07/16 06:37:19;;;;;;;10.90;5.25;;;;;;;46.85;20.47;99905.89;1788086;78;21806;-68
2021/07/16 06:39:45;;;;;;;21.10;5.62;;;;;;;46.77;20.46;99905.33;1793385;78;21063;-67
2021/07/16 06:42:12;;;;;;;11.75;5.78;;;;;;;46.54;20.67;99902.84;1786080;78;20983;-65
2021/07/16 06:44:40;;;;;;;10.00;5.40;;;;;;;46.65;20.77;99906.70;1792900;78;21097;-62
2021/07/16 06:47:08;;;;;;;8.43;5.37;;;;;;;46.84;20.67;99898.83;1789785;78;20955;-68
2021/07/16 06:49:36;;;;;;;11.67;6.00;;;;;;;47.01;20.30;99901.66;1784836;79;20879;-66
2021/07/16 06:52:04;;;;;;;13.43;5.65;;;;;;;47.21;20.20;99895.94;1793186;78;20925;-67
2021/07/16 06:54:31;;;;;;;12.95;6.75;;;;;;;47.35;19.80;99896.09;1796435;78;20920;-62
2021/07/16 06:56:58;;;;;;;8.35;5.50;;;;;;;47.33;19.53;99890.27;1797978;79;20990;-66
2021/07/16 06:59:24;;;;;;;8.68;4.97;;;;;;;47.35;19.50;99893.95;1794529;78;21129;-65
2021/07/16 07:01:51;;;;;;;11.55;5.42;;;;;;;47.35;19.02;99887.81;1760200;79;21138;-66
2021/07/16 07:04:20;;;;;;;12.40;5.15;;;;;;;47.34;18.99;99892.41;1770808;79;21006;-64
2021/07/16 07:06:46;;;;;;;9.05;4.35;;;;;;;47.13;19.32;99885.55;1775791;79;20959;-60
2021/07/16 07:09:14;;;;;;;8.00;5.10;;;;;;;47.17;19.62;99883.44;1764265;79;21059;-66
2021/07/16 07:11:41;;;;;;;7.00;4.40;;;;;;;47.01;20.00;99881.58;1770776;79;22256;-61
2021/07/16 07:14:08;;;;;;;10.78;4.17;;;;;;;46.97;19.95;99883.68;1764495;79;21074;-65
2021/07/16 07:16:34;;;;;;;9.45;4.25;;;;;;;46.84;20.10;99876.77;1772555;79;21070;-64
2021/07/16 07:19:03;;;;;;;7.72;3.87;;;;;;;46.84;19.62;99876.77;1768093;79;21450;-60
2021/07/16 07:21:29;;;;;;;7.92;4.42;;;;;;;46.72;19.74;99874.17;1762477;79;21639;-63
2021/07/16 07:23:56;;;;;;;7.00;3.87;;;;;;;46.74;20.07;99881.98;1769498;79;21002;-63
2021/07/16 07:26:23;;;;;;;6.80;3.62;;;;;;;46.74;20.08;99872.34;1777083;79;21049;-63
2021/07/16 07:28:49;;;;;;;4.17;2.70;;;;;;;46.71;19.59;99871.22;1767649;79;20975;-63
2021/07/16 07:31:16;;;;;;;5.45;3.30;;;;;;;46.63;18.79;99874.64;1766842;79;20908;-62
2021/07/16 07:33:42;;;;;;;6.40;3.22;;;;;;;46.60;18.72;99876.89;1776518;79;20985;-64
2021/07/16 07:36:11;;;;;;;4.47;3.20;;;;;;;46.51;18.43;99869.25;1758960;79;21043;-63
2021/07/16 07:38:38;;;;;;;8.78;3.08;;;;;;;46.55;18.98;99870.69;1762376;79;21134;-63
2021/07/16 07:41:05;;;;;;;7.17;3.22;;;;;;;46.58;18.83;99862.17;1770075;79;20877;-62
2021/07/16 07:43:32;;;;;;;5.65;2.52;;;;;;;46.52;18.68;99860.52;1774638;79;21015;-65
2021/07/16 07:45:59;;;;;;;7.22;3.47;;;;;;;46.51;18.57;99865.88;1775456;79;21474;-64
2021/07/16 07:48:25;;;;;;;10.50;3.85;;;;;;;46.63;18.80;99863.61;1772650;79;21068;-64
2021/07/16 07:50:52;;;;;;;7.00;2.45;;;;;;;46.60;18.60;99857.59;1777256;79;21125;-64
2021/07/16 07:53:18;;;;;;;5.60;2.77;;;;;;;46.60;18.51;99858.39;1762328;79;21008;-61
2021/07/16 07:55:45;;;;;;;8.45;3.20;;;;;;;46.47;19.11;99856.17;1765069;79;21053;-65
2021/07/16 07:58:12;;;;;;;5.95;2.55;;;;;;;46.49;18.17;99846.27;1770740;79;21643;-60
2021/07/16 08:00:38;;;;;;;5.60;2.70;;;;;;;46.63;18.85;99849.21;1765186;79;21110;-64
2021/07/16 08:03:05;;;;;;;19.40;4.75;;;;;;;46.81;18.67;99850.05;1761278;79;21146;-64
2021/07/16 08:05:33;;;;;;;5.87;3.20;;;;;;;46.88;18.72;99851.22;1763577;79;20988;-63
2021/07/16 08:07:59;;;;;;;4.97;3.00;;;;;;;46.81;18.09;99851.44;1765791;79;21067;-63
2021/07/16 08:10:26;;;;;;;4.85;3.15;;;;;;;46.80;18.39;99847.91;1766360;79;21046;-63
2021/07/16 08:12:52;;;;;;;7.58;3.25;;;;;;;46.82;18.64;99849.60;1762786;79;20995;-64
2021/07/16 08:15:19;;;;;;;5.47;2.42;;;;;;;46.86;18.67;99846.73;1767181;79;21742;-64
2021/07/16 08:17:46;;;;;;;4.92;2.80;;;;;;;46.97;18.62;99841.69;1773654;79;21623;-66
2021/07/16 08:20:13;;;;;;;4.53;2.27;;;;;;;47.12;18.26;99848.13;1776477;79;21023;-64
2021/07/16 08:22:41;;;;;;;3.98;2.42;;;;;;;46.80;18.48;99841.63;1772802;79;20978;-59
2021/07/16 08:25:10;;;;;;;7.35;2.40;;;;;;;46.94;17.86;99845.32;1760577;79;21113;-59
2021/07/16 08:27:38;;;;;;;4.35;2.30;;;;;;;46.90;17.43;99840.50;1772808;79;22241;-65
2021/07/16 08:30:06;;;;;;;6.28;2.87;;;;;;;46.69;17.63;99840.56;1769025;79;21639;-65
2021/07/16 08:32:33;;;;;;;4.67;2.50;;;;;;;46.64;17.85;99833.44;1765876;79;20928;-63
2021/07/16 08:35:00;;;;;;;5.85;2.65;;;;;;;46.58;18.20;99835.38;1761038;79;21052;-64
2021/07/16 08:37:27;;;;;;;5.20;2.55;;;;;;;46.58;18.05;99835.38;1767848;79;21106;-64
2021/07/16 08:39:57;;;;;;;4.28;2.12;;;;;;;46.57;18.32;99836.56;1774292;79;20955;-65
2021/07/16 08:42:25;;;;;;;3.45;2.40;;;;;;;46.60;17.99;99830.81;1765224;79;20935;-65
2021/07/16 08:44:52;;;;;;;7.90;2.20;;;;;;;46.62;18.07;99830.36;1768260;79;21015;-61
2021/07/16 08:47:19;;;;;;;5.25;2.47;;;;;;;46.58;18.32;99828.48;1763111;79;21376;-64
2021/07/16 08:49:46;;;;;;;5.10;1.87;;;;;;;46.67;17.15;99814.63;1765653;79;21110;-66
2021/07/16 08:52:12;;;;;;;5.00;2.40;;;;;;;46.58;17.74;99820.20;1771248;80;21019;-65
2021/07/16 08:54:50;;;;;;;4.03;2.25;;;;;;;46.65;17.81;99816.47;1766766;79;20924;-65
2021/07/16 08:57:09;;;;;;;2.80;2.10;;;;;;;46.58;17.79;99818.83;1762719;79;21019;-61
2021/07/16 08:59:35;;;;;;;7.25;2.42;;;;;;;46.50;17.73;99817.47;1741590;79;21307;-65
2021/07/16 09:02:04;;;;;;;3.37;2.35;;;;;;;46.37;17.89;99814.52;1767891;79;21093;-66
2021/07/16 09:04:40;;;;;;;4.87;2.33;;;;;;;46.21;18.22;99813.39;1759771;79;21830;-63
2021/07/16 09:07:07;;;;;;;6.03;2.25;;;;;;;46.15;17.98;99812.98;1809360;78;20868;-64
2021/07/16 09:09:36;;;;;;;6.62;2.27;;;;;;;46.19;18.26;99812.28;1800859;78;21077;-65
2021/07/16 09:12:13;;;;;;;3.90;1.87;;;;;;;46.27;18.02;99808.13;1811624;78;20861;-65
2021/07/16 09:14:41;;;;;;;3.52;1.98;;;;;;;46.18;18.31;99807.34;1812798;78;21067;-62
2021/07/16 09:17:15;;;;;;;8.20;2.30;;;;;;;46.17;18.16;99803.05;1806483;78;21143;-65
2021/07/16 09:19:50;;;;;;;4.30;1.85;;;;;;;46.12;17.73;99804.98;1811660;78;20916;-65
2021/07/16 09:22:19;;;;;;;5.47;2.77;;;;;;;45.98;17.76;99801.25;1803800;78;20924;-64
2021/07/16 09:24:59;;;;;;;9.75;2.65;;;;;;;45.93;18.31;99803.94;1807190;78;20978;-64
2021/07/16 09:27:40;;;;;;;4.00;1.90;;;;;;;45.75;17.85;99800.87;1807185;78;21020;-65
2021/07/16 09:30:24;;;;;;;7.62;2.47;;;;;;;45.68;18.29;99796.31;1811492;77;21117;-59
2021/07/16 09:32:57;;;;;;;3.00;1.95;;;;;;;45.63;18.50;99793.50;1807543;78;20908;-66
2021/07/16 09:35:29;;;;;;;5.35;2.20;;;;;;;45.50;17.98;99786.38;1813423;78;20990;-67
2021/07/16 09:38:00;;;;;;;3.62;2.27;;;;;;;45.40;17.33;99779.93;1808515;78;20919;-61
2021/07/16 09:40:32;;;;;;;7.53;2.02;;;;;;;45.23;17.26;99783.89;1748844;81;21141;-64
2021/07/16 09:43:11;;;;;;;6.20;2.15;;;;;;;45.19;17.57;99781.84;1790953;79;21814;-65
2021/07/16 09:45:43;;;;;;;4.95;2.00;;;;;;;45.22;17.31;99786.48;1783064;79;21001;-62
2021/07/16 09:48:25;;;;;;;4.72;1.95;;;;;;;45.23;17.62;99786.65;1784814;79;21556;-65
2021/07/16 09:51:23;;;;;;;3.77;1.90;;;;;;;45.13;17.77;99778.84;1787348;79;21010;-66
2021/07/16 09:54:01;;;;;;;6.03;2.67;;;;;;;44.97;18.07;99771.34;1790052;79;21026;-65
2021/07/16 09:56:36;;;;;;;7.67;2.90;;;;;;;44.86;18.58;99768.85;1783592;79;21129;-62
2021/07/16 09:59:14;;;;;;;6.30;2.50;;;;;;;44.70;18.82;99772.17;1774808;79;21078;-67
2021/07/16 10:01:43;;;;;;;3.65;2.10;;;;;;;44.51;18.80;99766.88;1784582;79;21007;-65
2021/07/16 10:04:23;;;;;;;5.17;2.30;;;;;;;44.34;18.65;99772.34;1772493;78;21172;-61
2021/07/16 10:06:49;;;;;;;35.88;4.12;;;;;;;44.35;18.99;99762.13;1781668;80;21732;-66
2021/07/16 10:09:17;;;;;;;7.87;2.22;;;;;;;44.29;18.85;99760.48;1781115;78;22068;-66
2021/07/16 10:11:48;;;;;;;6.70;2.45;;;;;;;44.09;19.43;99759.09;1772714;79;26874;-62
2021/07/16 10:14:15;;;;;;;2.95;1.92;;;;;;;44.04;19.67;99758.22;1799389;78;21535;-66
2021/07/16 10:16:47;;;;;;;5.22;2.50;;;;;;;44.03;19.52;99751.79;1807646;79;20936;-65
2021/07/16 10:19:14;;;;;;;2.90;2.10;;;;;;;44.09;19.90;99747.33;1803657;77;21559;-67
2021/07/16 10:21:41;;;;;;;5.50;2.27;;;;;;;44.15;19.41;99749.16;1775721;78;21079;-64
2021/07/16 10:24:08;;;;;;;5.00;2.55;;;;;;;43.92;19.42;99749.26;1765353;80;20980;-66
2021/07/16 10:26:34;;;;;;;3.85;2.50;;;;;;;43.81;20.03;99746.69;1756712;80;21002;-66
2021/07/16 10:29:01;;;;;;;3.87;2.50;;;;;;;43.85;19.99;99737.78;1768476;79;21391;-67
2021/07/16 10:31:33;;;;;;;5.90;2.62;;;;;;;43.89;20.34;99738.51;1779454;79;21161;-64
2021/07/16 10:34:28;;;;;;;3.83;2.50;;;;;;;43.95;19.98;99740.17;1761151;79;21431;-60
2021/07/16 10:37:07;;;;;;;6.08;2.60;;;;;;;43.94;19.13;99736.63;1760508;80;21043;-66
2021/07/16 10:39:52;;;;;;;4.22;2.77;;;;;;;43.92;19.60;99727.28;1763159;79;21572;-64
2021/07/16 10:42:34;;;;;;;6.17;3.25;;;;;;;44.00;19.27;99736.16;1730002;81;21032;-65
2021/07/16 10:45:04;;;;;;;4.45;3.10;;;;;;;44.00;18.93;99731.43;1772825;79;20980;-65
2021/07/16 10:47:47;;;;;;;7.50;3.33;;;;;;;43.96;19.09;99727.98;1788523;78;21142;-62
2021/07/16 10:50:32;;;;;;;5.15;3.27;;;;;;;44.12;19.31;99722.53;1777491;79;20954;-65
2021/07/16 10:52:59;;;;;;;4.47;2.90;;;;;;;44.28;18.99;99723.80;1784477;78;21067;-66
2021/07/16 10:55:41;;;;;;;5.35;2.62;;;;;;;44.24;19.40;99722.48;1785425;79;20927;-66
2021/07/16 10:58:26;;;;;;;5.50;3.08;;;;;;;44.20;19.77;99711.56;1797074;79;21446;-66
2021/07/16 11:01:03;;;;;;;6.33;3.15;;;;;;;44.35;19.39;99701.67;1796510;78;21661;-61
2021/07/16 11:03:49;;;;;;;4.75;2.83;;;;;;;44.24;19.16;99703.25;1805518;77;20976;-66
2021/07/16 11:06:18;;;;;;;5.70;3.20;;;;;;;44.06;19.07;99694.61;1792063;79;20968;-68
2021/07/16 11:08:51;;;;;;;5.00;2.95;;;;;;;43.83;19.66;99699.58;1792484;79;21097;-67
2021/07/16 11:11:37;;;;;;;4.83;3.05;;;;;;;43.70;20.28;99688.47;1798072;78;20909;-65
2021/07/16 11:14:03;;;;;;;5.78;3.05;;;;;;;43.66;20.25;99684.42;1783721;79;21127;-67
2021/07/16 11:16:38;;;;;;;4.15;2.92;;;;;;;43.55;20.58;99671.50;1784948;78;20989;-66
2021/07/16 11:19:09;;;;;;;4.15;3.22;;;;;;;43.60;20.30;99668.26;1790860;78;21545;-66
2021/07/16 11:21:46;;;;;;;6.00;3.22;;;;;;;43.61;20.89;99664.34;1775088;79;21336;-62
2021/07/16 11:24:22;;;;;;;5.33;3.12;;;;;;;43.65;20.90;99659.55;1779955;79;21538;-61
2021/07/16 11:27:07;;;;;;;4.33;3.08;;;;;;;43.78;20.80;99659.67;1797845;79;22190;-65
2021/07/16 11:29:47;;;;;;;5.00;3.17;;;;;;;43.70;20.85;99652.78;1780110;78;20995;-64
2021/07/16 11:32:25;;;;;;;4.25;3.62;;;;;;;43.60;21.25;99654.53;1747196;80;21608;-66
2021/07/16 11:35:05;;;;;;;7.70;3.87;;;;;;;43.73;20.31;99652.55;1784722;79;20991;-61
2021/07/16 11:37:37;;;;;;;4.90;4.40;;;;;;;43.66;20.26;99651.48;1779185;78;20928;-64
2021/07/16 11:40:10;;;;;;;7.17;3.70;;;;;;;43.67;20.93;99661.25;1751085;79;21575;-66